Аэропорт: им. Гейдара Алиева. Баку

ICAO: UBBB

METAR:
2018/07/16 20:00
UBBB 162000Z 33014KT 9999 FEW060CB BKN100 26/21 Q1005 R88/CLRD// NOSIG
METAR:
2018/07/16 18:12
TAF TAF UBBB 161711Z 1618/1718 33016G26KT 9999 SCT020 BKN100 TX30/1711Z TN23/1702Z 
      TEMPO 1618/1624 34022G32KT SCT010 FEW050CB PROB30 
      TEMPO 1620/1624 -TSRA SCT030CB 
      BECMG 1700/1702 36012KT 
      TEMPO 1706/1716 04010KT SCT040CB BKN080